sensor_id;sensor_type;location;lat;lon;timestamp;P1;durP1;ratioP1;P2;durP2;ratioP2
57824;SDS011;43912;44.188;21.094;2023-03-23T00:02:19;30.00;;;24.48;;
57824;SDS011;43912;44.188;21.094;2023-03-23T00:04:48;32.33;;;24.70;;
57824;SDS011;43912;44.188;21.094;2023-03-23T00:07:15;42.05;;;30.52;;
57824;SDS011;43912;44.188;21.094;2023-03-23T00:09:46;36.78;;;27.98;;
57824;SDS011;43912;44.188;21.094;2023-03-23T00:12:12;39.97;;;29.25;;
57824;SDS011;43912;44.188;21.094;2023-03-23T00:14:40;33.60;;;27.48;;
57824;SDS011;43912;44.188;21.094;2023-03-23T00:17:08;33.40;;;26.80;;
57824;SDS011;43912;44.188;21.094;2023-03-23T00:19:39;34.33;;;26.48;;
57824;SDS011;43912;44.188;21.094;2023-03-23T00:22:11;39.70;;;32.75;;
57824;SDS011;43912;44.188;21.094;2023-03-23T00:24:37;40.67;;;30.15;;
57824;SDS011;43912;44.188;21.094;2023-03-23T00:27:03;31.67;;;25.60;;
57824;SDS011;43912;44.188;21.094;2023-03-23T00:29:30;36.08;;;26.85;;
57824;SDS011;43912;44.188;21.094;2023-03-23T00:31:57;38.13;;;29.25;;
57824;SDS011;43912;44.188;21.094;2023-03-23T00:34:23;31.30;;;24.00;;
57824;SDS011;43912;44.188;21.094;2023-03-23T00:36:52;38.35;;;29.67;;
57824;SDS011;43912;44.188;21.094;2023-03-23T00:39:21;35.33;;;27.50;;
57824;SDS011;43912;44.188;21.094;2023-03-23T00:41:49;35.53;;;27.38;;
57824;SDS011;43912;44.188;21.094;2023-03-23T00:44:16;37.60;;;28.27;;
57824;SDS011;43912;44.188;21.094;2023-03-23T00:46:45;40.47;;;31.38;;
57824;SDS011;43912;44.188;21.094;2023-03-23T00:49:13;40.15;;;30.17;;
57824;SDS011;43912;44.188;21.094;2023-03-23T00:51:40;42.25;;;31.35;;
57824;SDS011;43912;44.188;21.094;2023-03-23T00:54:07;39.40;;;32.60;;
57824;SDS011;43912;44.188;21.094;2023-03-23T00:56:33;52.10;;;36.60;;
57824;SDS011;43912;44.188;21.094;2023-03-23T00:59:00;33.13;;;24.48;;
57824;SDS011;43912;44.188;21.094;2023-03-23T01:01:26;36.30;;;26.17;;
57824;SDS011;43912;44.188;21.094;2023-03-23T01:03:52;51.88;;;35.63;;
57824;SDS011;43912;44.188;21.094;2023-03-23T01:06:25;39.72;;;30.23;;
57824;SDS011;43912;44.188;21.094;2023-03-23T01:08:51;37.50;;;29.45;;
57824;SDS011;43912;44.188;21.094;2023-03-23T01:11:18;41.83;;;31.55;;
57824;SDS011;43912;44.188;21.094;2023-03-23T01:13:45;40.95;;;33.17;;
57824;SDS011;43912;44.188;21.094;2023-03-23T01:16:12;38.80;;;32.00;;
57824;SDS011;43912;44.188;21.094;2023-03-23T01:18:38;39.00;;;32.60;;
57824;SDS011;43912;44.188;21.094;2023-03-23T01:21:05;37.78;;;29.10;;
57824;SDS011;43912;44.188;21.094;2023-03-23T01:23:33;37.67;;;29.45;;
57824;SDS011;43912;44.188;21.094;2023-03-23T01:26:02;35.92;;;28.88;;
57824;SDS011;43912;44.188;21.094;2023-03-23T01:28:28;35.80;;;28.75;;
57824;SDS011;43912;44.188;21.094;2023-03-23T01:30:58;29.02;;;23.45;;
57824;SDS011;43912;44.188;21.094;2023-03-23T01:33:25;33.38;;;25.60;;
57824;SDS011;43912;44.188;21.094;2023-03-23T01:35:51;35.50;;;26.60;;
57824;SDS011;43912;44.188;21.094;2023-03-23T01:38:17;37.38;;;28.42;;
57824;SDS011;43912;44.188;21.094;2023-03-23T01:40:43;37.20;;;30.42;;
57824;SDS011;43912;44.188;21.094;2023-03-23T01:43:12;36.83;;;29.60;;
57824;SDS011;43912;44.188;21.094;2023-03-23T01:45:39;40.47;;;30.52;;
57824;SDS011;43912;44.188;21.094;2023-03-23T01:48:10;33.75;;;26.15;;
57824;SDS011;43912;44.188;21.094;2023-03-23T01:50:43;32.83;;;25.58;;
57824;SDS011;43912;44.188;21.094;2023-03-23T01:53:12;32.65;;;24.63;;
57824;SDS011;43912;44.188;21.094;2023-03-23T01:55:39;29.60;;;24.88;;
57824;SDS011;43912;44.188;21.094;2023-03-23T01:58:06;30.05;;;23.65;;
57824;SDS011;43912;44.188;21.094;2023-03-23T02:00:33;29.83;;;24.20;;
57824;SDS011;43912;44.188;21.094;2023-03-23T02:03:00;31.55;;;22.52;;
57824;SDS011;43912;44.188;21.094;2023-03-23T02:05:28;28.35;;;22.88;;
57824;SDS011;43912;44.188;21.094;2023-03-23T02:07:57;29.98;;;23.75;;
57824;SDS011;43912;44.188;21.094;2023-03-23T02:10:27;27.30;;;21.80;;
57824;SDS011;43912;44.188;21.094;2023-03-23T02:12:53;27.38;;;22.00;;
57824;SDS011;43912;44.188;21.094;2023-03-23T02:15:19;30.17;;;23.02;;
57824;SDS011;43912;44.188;21.094;2023-03-23T02:25:54;26.50;;;21.35;;
57824;SDS011;43912;44.188;21.094;2023-03-23T02:34:08;27.52;;;21.25;;
57824;SDS011;43912;44.188;21.094;2023-03-23T02:36:38;26.42;;;21.52;;
57824;SDS011;43912;44.188;21.094;2023-03-23T02:44:25;28.45;;;21.08;;
57824;SDS011;43912;44.188;21.094;2023-03-23T02:46:55;26.80;;;20.88;;
57824;SDS011;43912;44.188;21.094;2023-03-23T02:49:22;27.15;;;20.85;;
57824;SDS011;43912;44.188;21.094;2023-03-23T02:51:50;23.90;;;19.05;;
57824;SDS011;43912;44.188;21.094;2023-03-23T02:54:16;24.85;;;19.77;;
57824;SDS011;43912;44.188;21.094;2023-03-23T02:56:44;26.30;;;19.75;;
57824;SDS011;43912;44.188;21.094;2023-03-23T02:59:10;28.95;;;19.80;;
57824;SDS011;43912;44.188;21.094;2023-03-23T03:04:06;29.52;;;20.63;;
57824;SDS011;43912;44.188;21.094;2023-03-23T03:06:41;25.08;;;19.30;;
57824;SDS011;43912;44.188;21.094;2023-03-23T03:09:18;21.85;;;18.00;;
57824;SDS011;43912;44.188;21.094;2023-03-23T03:11:50;24.42;;;18.80;;
57824;SDS011;43912;44.188;21.094;2023-03-23T03:14:21;22.88;;;18.48;;
57824;SDS011;43912;44.188;21.094;2023-03-23T03:16:56;24.85;;;19.98;;
57824;SDS011;43912;44.188;21.094;2023-03-23T03:21:50;25.83;;;19.38;;
57824;SDS011;43912;44.188;21.094;2023-03-23T03:24:18;29.45;;;21.45;;
57824;SDS011;43912;44.188;21.094;2023-03-23T03:26:46;24.48;;;20.65;;
57824;SDS011;43912;44.188;21.094;2023-03-23T03:29:13;27.13;;;19.35;;
57824;SDS011;43912;44.188;21.094;2023-03-23T03:31:42;25.08;;;20.27;;
57824;SDS011;43912;44.188;21.094;2023-03-23T03:34:13;25.83;;;20.55;;
57824;SDS011;43912;44.188;21.094;2023-03-23T03:36:42;25.45;;;18.52;;
57824;SDS011;43912;44.188;21.094;2023-03-23T03:39:10;23.42;;;17.98;;
57824;SDS011;43912;44.188;21.094;2023-03-23T03:41:37;25.58;;;18.92;;
57824;SDS011;43912;44.188;21.094;2023-03-23T03:44:04;24.75;;;19.20;;
57824;SDS011;43912;44.188;21.094;2023-03-23T03:46:31;25.58;;;18.67;;
57824;SDS011;43912;44.188;21.094;2023-03-23T03:48:58;24.75;;;18.60;;
57824;SDS011;43912;44.188;21.094;2023-03-23T03:51:25;25.70;;;19.23;;
57824;SDS011;43912;44.188;21.094;2023-03-23T03:53:51;25.48;;;18.10;;
57824;SDS011;43912;44.188;21.094;2023-03-23T03:56:17;25.60;;;18.48;;
57824;SDS011;43912;44.188;21.094;2023-03-23T03:58:44;25.10;;;18.90;;
57824;SDS011;43912;44.188;21.094;2023-03-23T04:01:13;25.27;;;19.30;;
57824;SDS011;43912;44.188;21.094;2023-03-23T04:03:40;24.88;;;18.52;;
57824;SDS011;43912;44.188;21.094;2023-03-23T04:06:06;26.77;;;19.13;;
57824;SDS011;43912;44.188;21.094;2023-03-23T04:08:37;23.67;;;19.40;;
57824;SDS011;43912;44.188;21.094;2023-03-23T04:11:04;30.05;;;21.02;;
57824;SDS011;43912;44.188;21.094;2023-03-23T04:13:31;28.23;;;20.40;;
57824;SDS011;43912;44.188;21.094;2023-03-23T04:15:57;29.55;;;20.13;;
57824;SDS011;43912;44.188;21.094;2023-03-23T04:18:23;27.67;;;21.58;;
57824;SDS011;43912;44.188;21.094;2023-03-23T04:20:50;25.25;;;19.73;;
57824;SDS011;43912;44.188;21.094;2023-03-23T04:23:16;24.60;;;18.80;;
57824;SDS011;43912;44.188;21.094;2023-03-23T04:25:47;28.20;;;20.50;;
57824;SDS011;43912;44.188;21.094;2023-03-23T04:28:14;23.83;;;18.35;;
57824;SDS011;43912;44.188;21.094;2023-03-23T04:30:41;25.27;;;19.25;;
57824;SDS011;43912;44.188;21.094;2023-03-23T04:33:08;23.63;;;19.20;;
57824;SDS011;43912;44.188;21.094;2023-03-23T04:35:40;23.17;;;18.75;;
57824;SDS011;43912;44.188;21.094;2023-03-23T04:38:06;28.13;;;19.88;;
57824;SDS011;43912;44.188;21.094;2023-03-23T04:40:35;31.83;;;22.33;;
57824;SDS011;43912;44.188;21.094;2023-03-23T04:43:02;28.65;;;22.52;;
57824;SDS011;43912;44.188;21.094;2023-03-23T04:45:31;30.42;;;23.30;;
57824;SDS011;43912;44.188;21.094;2023-03-23T04:47:57;27.40;;;23.27;;
57824;SDS011;43912;44.188;21.094;2023-03-23T04:50:25;29.75;;;23.35;;
57824;SDS011;43912;44.188;21.094;2023-03-23T04:52:52;27.02;;;19.88;;
57824;SDS011;43912;44.188;21.094;2023-03-23T04:55:21;30.58;;;21.85;;
57824;SDS011;43912;44.188;21.094;2023-03-23T04:57:47;27.65;;;22.45;;
57824;SDS011;43912;44.188;21.094;2023-03-23T05:00:13;34.05;;;25.90;;
57824;SDS011;43912;44.188;21.094;2023-03-23T05:02:41;33.47;;;27.13;;
57824;SDS011;43912;44.188;21.094;2023-03-23T05:05:08;29.60;;;23.58;;
57824;SDS011;43912;44.188;21.094;2023-03-23T05:07:35;28.00;;;23.50;;
57824;SDS011;43912;44.188;21.094;2023-03-23T05:10:02;26.23;;;21.75;;
57824;SDS011;43912;44.188;21.094;2023-03-23T05:12:28;31.48;;;24.70;;
57824;SDS011;43912;44.188;21.094;2023-03-23T05:14:54;27.00;;;23.02;;
57824;SDS011;43912;44.188;21.094;2023-03-23T05:17:20;30.27;;;24.48;;
57824;SDS011;43912;44.188;21.094;2023-03-23T05:19:49;33.58;;;26.60;;
57824;SDS011;43912;44.188;21.094;2023-03-23T05:22:15;38.22;;;29.92;;
57824;SDS011;43912;44.188;21.094;2023-03-23T05:24:41;40.15;;;32.58;;
57824;SDS011;43912;44.188;21.094;2023-03-23T05:27:08;33.85;;;28.95;;
57824;SDS011;43912;44.188;21.094;2023-03-23T05:29:34;33.92;;;28.55;;
57824;SDS011;43912;44.188;21.094;2023-03-23T05:32:06;35.85;;;23.40;;
57824;SDS011;43912;44.188;21.094;2023-03-23T05:34:32;26.70;;;21.67;;
57824;SDS011;43912;44.188;21.094;2023-03-23T05:36:59;28.83;;;24.13;;
57824;SDS011;43912;44.188;21.094;2023-03-23T05:39:25;28.73;;;22.75;;
57824;SDS011;43912;44.188;21.094;2023-03-23T05:41:51;31.90;;;25.38;;
57824;SDS011;43912;44.188;21.094;2023-03-23T05:44:17;32.58;;;26.88;;
57824;SDS011;43912;44.188;21.094;2023-03-23T05:46:44;31.75;;;25.05;;
57824;SDS011;43912;44.188;21.094;2023-03-23T05:49:10;24.52;;;20.60;;
57824;SDS011;43912;44.188;21.094;2023-03-23T05:51:36;32.75;;;25.75;;
57824;SDS011;43912;44.188;21.094;2023-03-23T05:54:02;37.40;;;27.10;;
57824;SDS011;43912;44.188;21.094;2023-03-23T05:56:28;35.15;;;29.95;;
57824;SDS011;43912;44.188;21.094;2023-03-23T05:58:56;37.88;;;29.58;;
57824;SDS011;43912;44.188;21.094;2023-03-23T06:01:22;35.90;;;28.48;;
57824;SDS011;43912;44.188;21.094;2023-03-23T06:03:49;30.80;;;23.45;;
57824;SDS011;43912;44.188;21.094;2023-03-23T06:06:18;32.38;;;21.77;;
57824;SDS011;43912;44.188;21.094;2023-03-23T06:08:44;26.40;;;20.38;;
57824;SDS011;43912;44.188;21.094;2023-03-23T06:11:10;22.52;;;19.42;;
57824;SDS011;43912;44.188;21.094;2023-03-23T06:13:38;23.67;;;20.40;;
57824;SDS011;43912;44.188;21.094;2023-03-23T06:16:04;26.15;;;19.92;;
57824;SDS011;43912;44.188;21.094;2023-03-23T06:18:30;23.27;;;20.75;;
57824;SDS011;43912;44.188;21.094;2023-03-23T06:20:58;22.20;;;18.98;;
57824;SDS011;43912;44.188;21.094;2023-03-23T06:23:25;20.55;;;17.55;;
57824;SDS011;43912;44.188;21.094;2023-03-23T06:25:58;28.48;;;25.13;;
57824;SDS011;43912;44.188;21.094;2023-03-23T06:28:25;29.50;;;24.77;;
57824;SDS011;43912;44.188;21.094;2023-03-23T06:30:52;23.05;;;19.70;;
57824;SDS011;43912;44.188;21.094;2023-03-23T06:33:18;29.00;;;22.38;;
57824;SDS011;43912;44.188;21.094;2023-03-23T06:35:44;28.73;;;23.67;;
57824;SDS011;43912;44.188;21.094;2023-03-23T06:38:10;25.98;;;22.55;;
57824;SDS011;43912;44.188;21.094;2023-03-23T06:40:37;27.30;;;22.10;;
57824;SDS011;43912;44.188;21.094;2023-03-23T06:43:03;30.92;;;21.98;;
57824;SDS011;43912;44.188;21.094;2023-03-23T06:45:30;29.50;;;22.05;;
57824;SDS011;43912;44.188;21.094;2023-03-23T06:47:56;28.50;;;22.13;;
57824;SDS011;43912;44.188;21.094;2023-03-23T06:50:22;26.52;;;22.50;;
57824;SDS011;43912;44.188;21.094;2023-03-23T06:52:49;43.75;;;36.75;;
57824;SDS011;43912;44.188;21.094;2023-03-23T06:55:16;29.20;;;24.90;;
57824;SDS011;43912;44.188;21.094;2023-03-23T06:57:43;36.35;;;26.33;;
57824;SDS011;43912;44.188;21.094;2023-03-23T07:00:10;35.08;;;26.65;;
57824;SDS011;43912;44.188;21.094;2023-03-23T07:02:38;32.67;;;26.10;;
57824;SDS011;43912;44.188;21.094;2023-03-23T07:05:05;28.95;;;23.73;;
57824;SDS011;43912;44.188;21.094;2023-03-23T07:07:32;29.67;;;22.65;;
57824;SDS011;43912;44.188;21.094;2023-03-23T07:09:58;29.67;;;25.58;;
57824;SDS011;43912;44.188;21.094;2023-03-23T07:12:24;26.02;;;21.13;;
57824;SDS011;43912;44.188;21.094;2023-03-23T07:14:50;22.63;;;20.08;;
57824;SDS011;43912;44.188;21.094;2023-03-23T07:17:16;31.17;;;24.75;;
57824;SDS011;43912;44.188;21.094;2023-03-23T07:19:42;34.70;;;25.30;;
57824;SDS011;43912;44.188;21.094;2023-03-23T07:22:08;27.45;;;22.42;;
57824;SDS011;43912;44.188;21.094;2023-03-23T07:24:35;32.40;;;24.33;;
57824;SDS011;43912;44.188;21.094;2023-03-23T07:27:01;24.05;;;21.50;;
57824;SDS011;43912;44.188;21.094;2023-03-23T07:29:27;24.85;;;20.70;;
57824;SDS011;43912;44.188;21.094;2023-03-23T07:31:54;28.88;;;22.00;;
57824;SDS011;43912;44.188;21.094;2023-03-23T07:34:20;20.67;;;18.45;;
57824;SDS011;43912;44.188;21.094;2023-03-23T07:36:46;23.20;;;19.70;;
57824;SDS011;43912;44.188;21.094;2023-03-23T07:39:13;19.38;;;16.60;;
57824;SDS011;43912;44.188;21.094;2023-03-23T07:41:39;18.85;;;16.17;;
57824;SDS011;43912;44.188;21.094;2023-03-23T07:44:05;16.67;;;14.88;;
57824;SDS011;43912;44.188;21.094;2023-03-23T07:46:32;18.75;;;15.80;;
57824;SDS011;43912;44.188;21.094;2023-03-23T07:48:58;14.88;;;12.77;;
57824;SDS011;43912;44.188;21.094;2023-03-23T07:51:25;18.00;;;15.60;;
57824;SDS011;43912;44.188;21.094;2023-03-23T07:53:52;18.00;;;15.98;;
57824;SDS011;43912;44.188;21.094;2023-03-23T07:56:19;15.00;;;13.40;;
57824;SDS011;43912;44.188;21.094;2023-03-23T07:58:46;14.10;;;12.32;;
57824;SDS011;43912;44.188;21.094;2023-03-23T08:01:12;13.50;;;11.30;;
57824;SDS011;43912;44.188;21.094;2023-03-23T08:03:38;14.93;;;13.35;;
57824;SDS011;43912;44.188;21.094;2023-03-23T08:06:05;14.90;;;11.40;;
57824;SDS011;43912;44.188;21.094;2023-03-23T08:08:31;17.33;;;14.23;;
57824;SDS011;43912;44.188;21.094;2023-03-23T08:10:57;16.98;;;12.63;;
57824;SDS011;43912;44.188;21.094;2023-03-23T08:13:24;14.52;;;11.32;;
57824;SDS011;43912;44.188;21.094;2023-03-23T08:15:50;13.60;;;11.07;;
57824;SDS011;43912;44.188;21.094;2023-03-23T08:18:16;14.95;;;12.02;;
57824;SDS011;43912;44.188;21.094;2023-03-23T08:20:43;14.50;;;10.90;;
57824;SDS011;43912;44.188;21.094;2023-03-23T08:23:09;12.90;;;11.25;;
57824;SDS011;43912;44.188;21.094;2023-03-23T08:25:36;14.88;;;11.65;;
57824;SDS011;43912;44.188;21.094;2023-03-23T08:28:03;15.07;;;13.52;;
57824;SDS011;43912;44.188;21.094;2023-03-23T08:30:29;14.90;;;12.90;;
57824;SDS011;43912;44.188;21.094;2023-03-23T08:32:57;13.75;;;12.30;;
57824;SDS011;43912;44.188;21.094;2023-03-23T08:35:25;11.80;;;10.32;;
57824;SDS011;43912;44.188;21.094;2023-03-23T08:37:51;12.75;;;11.38;;
57824;SDS011;43912;44.188;21.094;2023-03-23T08:40:18;13.13;;;10.80;;
57824;SDS011;43912;44.188;21.094;2023-03-23T08:42:45;14.63;;;11.50;;
57824;SDS011;43912;44.188;21.094;2023-03-23T08:45:13;14.20;;;10.88;;
57824;SDS011;43912;44.188;21.094;2023-03-23T08:47:39;12.85;;;11.57;;
57824;SDS011;43912;44.188;21.094;2023-03-23T08:50:07;12.07;;;9.80;;
57824;SDS011;43912;44.188;21.094;2023-03-23T08:52:33;10.60;;;9.50;;
57824;SDS011;43912;44.188;21.094;2023-03-23T08:55:00;10.50;;;9.15;;
57824;SDS011;43912;44.188;21.094;2023-03-23T08:57:26;12.68;;;9.75;;
57824;SDS011;43912;44.188;21.094;2023-03-23T08:59:52;11.60;;;10.05;;
57824;SDS011;43912;44.188;21.094;2023-03-23T09:04:52;14.00;;;10.00;;
57824;SDS011;43912;44.188;21.094;2023-03-23T09:07:18;11.60;;;9.77;;
57824;SDS011;43912;44.188;21.094;2023-03-23T09:09:44;12.02;;;10.05;;
57824;SDS011;43912;44.188;21.094;2023-03-23T09:12:11;12.52;;;10.30;;
57824;SDS011;43912;44.188;21.094;2023-03-23T09:14:38;11.68;;;10.07;;
57824;SDS011;43912;44.188;21.094;2023-03-23T09:17:05;18.02;;;11.40;;
57824;SDS011;43912;44.188;21.094;2023-03-23T09:19:32;41.88;;;33.78;;
57824;SDS011;43912;44.188;21.094;2023-03-23T09:22:00;13.02;;;10.52;;
57824;SDS011;43912;44.188;21.094;2023-03-23T09:24:26;12.18;;;9.55;;
57824;SDS011;43912;44.188;21.094;2023-03-23T09:26:52;25.05;;;19.05;;
57824;SDS011;43912;44.188;21.094;2023-03-23T09:29:18;12.30;;;10.57;;
57824;SDS011;43912;44.188;21.094;2023-03-23T09:31:45;11.25;;;8.68;;
57824;SDS011;43912;44.188;21.094;2023-03-23T09:34:12;11.43;;;7.13;;
57824;SDS011;43912;44.188;21.094;2023-03-23T09:36:40;12.13;;;9.90;;
57824;SDS011;43912;44.188;21.094;2023-03-23T09:39:06;11.98;;;9.60;;
57824;SDS011;43912;44.188;21.094;2023-03-23T09:49:21;9.45;;;7.38;;
57824;SDS011;43912;44.188;21.094;2023-03-23T09:56:45;13.55;;;7.63;;
57824;SDS011;43912;44.188;21.094;2023-03-23T10:01:46;10.23;;;7.43;;
57824;SDS011;43912;44.188;21.094;2023-03-23T10:06:41;17.42;;;7.22;;
57824;SDS011;43912;44.188;21.094;2023-03-23T10:09:08;9.70;;;5.72;;
57824;SDS011;43912;44.188;21.094;2023-03-23T10:11:58;8.88;;;7.03;;
57824;SDS011;43912;44.188;21.094;2023-03-23T10:14:34;13.82;;;7.53;;
57824;SDS011;43912;44.188;21.094;2023-03-23T10:17:15;8.32;;;6.35;;
57824;SDS011;43912;44.188;21.094;2023-03-23T10:19:56;10.15;;;6.60;;
57824;SDS011;43912;44.188;21.094;2023-03-23T10:22:31;9.57;;;5.80;;
57824;SDS011;43912;44.188;21.094;2023-03-23T10:27:51;7.70;;;5.63;;
57824;SDS011;43912;44.188;21.094;2023-03-23T10:32:52;7.75;;;4.68;;
57824;SDS011;43912;44.188;21.094;2023-03-23T10:35:21;7.63;;;4.97;;
57824;SDS011;43912;44.188;21.094;2023-03-23T10:37:52;11.30;;;5.18;;
57824;SDS011;43912;44.188;21.094;2023-03-23T10:40:20;8.82;;;5.50;;
57824;SDS011;43912;44.188;21.094;2023-03-23T10:42:51;8.27;;;5.55;;
57824;SDS011;43912;44.188;21.094;2023-03-23T10:47:49;8.00;;;5.38;;
57824;SDS011;43912;44.188;21.094;2023-03-23T10:50:17;8.63;;;5.32;;
57824;SDS011;43912;44.188;21.094;2023-03-23T10:52:43;7.93;;;4.90;;
57824;SDS011;43912;44.188;21.094;2023-03-23T10:55:14;7.53;;;4.93;;
57824;SDS011;43912;44.188;21.094;2023-03-23T10:57:42;8.60;;;4.53;;
57824;SDS011;43912;44.188;21.094;2023-03-23T11:02:46;8.32;;;4.57;;
57824;SDS011;43912;44.188;21.094;2023-03-23T11:05:20;7.28;;;3.80;;
57824;SDS011;43912;44.188;21.094;2023-03-23T11:07:56;6.70;;;3.67;;
57824;SDS011;43912;44.188;21.094;2023-03-23T11:10:25;6.78;;;4.00;;
57824;SDS011;43912;44.188;21.094;2023-03-23T11:12:52;6.13;;;3.60;;
57824;SDS011;43912;44.188;21.094;2023-03-23T11:15:26;6.72;;;3.95;;
57824;SDS011;43912;44.188;21.094;2023-03-23T11:18:03;6.57;;;4.10;;
57824;SDS011;43912;44.188;21.094;2023-03-23T11:20:34;7.78;;;4.10;;
57824;SDS011;43912;44.188;21.094;2023-03-23T11:23:01;8.73;;;3.75;;
57824;SDS011;43912;44.188;21.094;2023-03-23T11:25:27;6.93;;;3.60;;
57824;SDS011;43912;44.188;21.094;2023-03-23T11:27:53;6.88;;;3.90;;
57824;SDS011;43912;44.188;21.094;2023-03-23T11:30:21;7.45;;;4.40;;
57824;SDS011;43912;44.188;21.094;2023-03-23T11:32:49;6.97;;;4.10;;
57824;SDS011;43912;44.188;21.094;2023-03-23T11:35:23;7.57;;;3.80;;
57824;SDS011;43912;44.188;21.094;2023-03-23T11:37:59;6.97;;;3.47;;
57824;SDS011;43912;44.188;21.094;2023-03-23T11:40:27;9.38;;;3.65;;
57824;SDS011;43912;44.188;21.094;2023-03-23T11:43:12;6.82;;;3.75;;
57824;SDS011;43912;44.188;21.094;2023-03-23T11:45:40;7.25;;;4.15;;
57824;SDS011;43912;44.188;21.094;2023-03-23T11:48:12;7.20;;;3.63;;
57824;SDS011;43912;44.188;21.094;2023-03-23T11:58:40;9.27;;;4.07;;
57824;SDS011;43912;44.188;21.094;2023-03-23T12:01:11;7.97;;;3.65;;
57824;SDS011;43912;44.188;21.094;2023-03-23T12:03:50;6.10;;;3.38;;
57824;SDS011;43912;44.188;21.094;2023-03-23T12:14:15;8.18;;;4.05;;
57824;SDS011;43912;44.188;21.094;2023-03-23T12:30:32;10.38;;;9.27;;
57824;SDS011;43912;44.188;21.094;2023-03-23T12:33:13;52.22;;;47.13;;
57824;SDS011;43912;44.188;21.094;2023-03-23T12:36:16;9.52;;;5.07;;
57824;SDS011;43912;44.188;21.094;2023-03-23T12:49:01;13.75;;;10.75;;
57824;SDS011;43912;44.188;21.094;2023-03-23T12:51:32;14.63;;;13.52;;
57824;SDS011;43912;44.188;21.094;2023-03-23T12:56:52;9.35;;;4.85;;
57824;SDS011;43912;44.188;21.094;2023-03-23T13:04:50;9.00;;;4.28;;
57824;SDS011;43912;44.188;21.094;2023-03-23T13:07:18;10.52;;;4.85;;
57824;SDS011;43912;44.188;21.094;2023-03-23T13:12:13;7.72;;;3.70;;
57824;SDS011;43912;44.188;21.094;2023-03-23T13:22:29;7.82;;;4.07;;
57824;SDS011;43912;44.188;21.094;2023-03-23T13:24:58;8.10;;;4.32;;
57824;SDS011;43912;44.188;21.094;2023-03-23T13:27:26;8.00;;;3.70;;
57824;SDS011;43912;44.188;21.094;2023-03-23T13:29:54;11.38;;;4.38;;
57824;SDS011;43912;44.188;21.094;2023-03-23T13:32:32;11.50;;;6.57;;
57824;SDS011;43912;44.188;21.094;2023-03-23T13:35:00;8.20;;;4.55;;
57824;SDS011;43912;44.188;21.094;2023-03-23T13:37:28;9.75;;;4.10;;
57824;SDS011;43912;44.188;21.094;2023-03-23T13:47:24;9.70;;;4.93;;
57824;SDS011;43912;44.188;21.094;2023-03-23T13:52:37;7.68;;;4.50;;
57824;SDS011;43912;44.188;21.094;2023-03-23T14:03:00;8.60;;;3.63;;
57824;SDS011;43912;44.188;21.094;2023-03-23T14:05:30;6.82;;;3.95;;
57824;SDS011;43912;44.188;21.094;2023-03-23T14:07:58;6.97;;;4.03;;
57824;SDS011;43912;44.188;21.094;2023-03-23T14:10:31;19.92;;;17.00;;
57824;SDS011;43912;44.188;21.094;2023-03-23T14:12:57;8.65;;;4.30;;
57824;SDS011;43912;44.188;21.094;2023-03-23T14:15:27;7.18;;;3.90;;
57824;SDS011;43912;44.188;21.094;2023-03-23T14:17:53;9.15;;;4.78;;
57824;SDS011;43912;44.188;21.094;2023-03-23T14:20:26;6.38;;;3.28;;
57824;SDS011;43912;44.188;21.094;2023-03-23T14:22:57;7.53;;;3.80;;
57824;SDS011;43912;44.188;21.094;2023-03-23T14:25:26;8.30;;;3.97;;
57824;SDS011;43912;44.188;21.094;2023-03-23T14:27:52;12.73;;;4.53;;
57824;SDS011;43912;44.188;21.094;2023-03-23T14:30:20;7.03;;;3.75;;
57824;SDS011;43912;44.188;21.094;2023-03-23T14:32:46;6.95;;;4.10;;
57824;SDS011;43912;44.188;21.094;2023-03-23T14:37:43;8.18;;;3.83;;
57824;SDS011;43912;44.188;21.094;2023-03-23T14:40:12;9.63;;;4.20;;
57824;SDS011;43912;44.188;21.094;2023-03-23T14:42:40;7.32;;;4.57;;
57824;SDS011;43912;44.188;21.094;2023-03-23T14:45:07;8.00;;;3.97;;
57824;SDS011;43912;44.188;21.094;2023-03-23T14:47:38;7.10;;;3.80;;
57824;SDS011;43912;44.188;21.094;2023-03-23T14:50:18;7.88;;;3.92;;
57824;SDS011;43912;44.188;21.094;2023-03-23T14:52:47;8.93;;;4.10;;
57824;SDS011;43912;44.188;21.094;2023-03-23T14:55:17;7.47;;;4.15;;
57824;SDS011;43912;44.188;21.094;2023-03-23T14:57:44;13.35;;;5.05;;
57824;SDS011;43912;44.188;21.094;2023-03-23T15:00:22;9.45;;;4.18;;
57824;SDS011;43912;44.188;21.094;2023-03-23T15:02:49;9.05;;;4.32;;
57824;SDS011;43912;44.188;21.094;2023-03-23T15:05:30;8.25;;;4.35;;
57824;SDS011;43912;44.188;21.094;2023-03-23T15:07:59;7.50;;;3.95;;
57824;SDS011;43912;44.188;21.094;2023-03-23T15:10:27;11.88;;;4.93;;
57824;SDS011;43912;44.188;21.094;2023-03-23T15:12:53;10.55;;;5.32;;
57824;SDS011;43912;44.188;21.094;2023-03-23T15:15:34;8.23;;;5.00;;
57824;SDS011;43912;44.188;21.094;2023-03-23T15:18:01;15.18;;;7.55;;
57824;SDS011;43912;44.188;21.094;2023-03-23T15:23:04;12.05;;;7.03;;
57824;SDS011;43912;44.188;21.094;2023-03-23T15:25:31;11.93;;;6.30;;
57824;SDS011;43912;44.188;21.094;2023-03-23T15:30:33;7.97;;;4.75;;
57824;SDS011;43912;44.188;21.094;2023-03-23T15:35:26;8.73;;;4.82;;
57824;SDS011;43912;44.188;21.094;2023-03-23T15:37:56;7.68;;;4.40;;
57824;SDS011;43912;44.188;21.094;2023-03-23T15:40:23;7.93;;;4.63;;
57824;SDS011;43912;44.188;21.094;2023-03-23T15:42:50;13.77;;;9.52;;
57824;SDS011;43912;44.188;21.094;2023-03-23T15:45:31;14.73;;;9.32;;
57824;SDS011;43912;44.188;21.094;2023-03-23T15:48:11;15.63;;;9.38;;
57824;SDS011;43912;44.188;21.094;2023-03-23T15:50:38;9.98;;;6.80;;
57824;SDS011;43912;44.188;21.094;2023-03-23T15:53:19;12.88;;;8.25;;
57824;SDS011;43912;44.188;21.094;2023-03-23T15:55:47;9.90;;;6.68;;
57824;SDS011;43912;44.188;21.094;2023-03-23T15:58:13;10.88;;;6.93;;
57824;SDS011;43912;44.188;21.094;2023-03-23T16:00:39;11.13;;;6.38;;
57824;SDS011;43912;44.188;21.094;2023-03-23T16:03:10;11.65;;;6.93;;
57824;SDS011;43912;44.188;21.094;2023-03-23T16:05:37;13.30;;;7.00;;
57824;SDS011;43912;44.188;21.094;2023-03-23T16:08:03;22.60;;;8.10;;
57824;SDS011;43912;44.188;21.094;2023-03-23T16:10:29;13.57;;;8.85;;
57824;SDS011;43912;44.188;21.094;2023-03-23T16:12:56;19.75;;;10.70;;
57824;SDS011;43912;44.188;21.094;2023-03-23T16:15:22;21.83;;;10.25;;
57824;SDS011;43912;44.188;21.094;2023-03-23T16:17:48;23.45;;;17.77;;
57824;SDS011;43912;44.188;21.094;2023-03-23T16:20:15;21.65;;;15.93;;
57824;SDS011;43912;44.188;21.094;2023-03-23T16:22:41;29.95;;;15.43;;
57824;SDS011;43912;44.188;21.094;2023-03-23T16:25:08;24.90;;;18.33;;
57824;SDS011;43912;44.188;21.094;2023-03-23T16:27:35;18.35;;;15.10;;
57824;SDS011;43912;44.188;21.094;2023-03-23T16:30:08;39.33;;;35.25;;
57824;SDS011;43912;44.188;21.094;2023-03-23T16:32:35;45.15;;;38.58;;
57824;SDS011;43912;44.188;21.094;2023-03-23T16:35:01;36.50;;;27.17;;
57824;SDS011;43912;44.188;21.094;2023-03-23T16:37:27;32.97;;;25.38;;
57824;SDS011;43912;44.188;21.094;2023-03-23T16:39:57;35.88;;;25.98;;
57824;SDS011;43912;44.188;21.094;2023-03-23T16:42:23;29.77;;;23.80;;
57824;SDS011;43912;44.188;21.094;2023-03-23T16:44:49;30.50;;;22.88;;